sensor_id;sensor_type;location;lat;lon;timestamp;pressure;altitude;pressure_sealevel;temperature;humidity
8059;BME280;4072;42.668;23.396;2023-04-30T00:01:05;94793.69;;;10.96;100.00
8059;BME280;4072;42.668;23.396;2023-04-30T00:03:36;94781.34;;;10.95;100.00
8059;BME280;4072;42.668;23.396;2023-04-30T00:06:05;94789.16;;;10.93;100.00
8059;BME280;4072;42.668;23.396;2023-04-30T00:08:32;94794.44;;;10.88;100.00
8059;BME280;4072;42.668;23.396;2023-04-30T00:11:03;94793.69;;;10.87;100.00
8059;BME280;4072;42.668;23.396;2023-04-30T00:13:31;94789.19;;;10.84;100.00
8059;BME280;4072;42.668;23.396;2023-04-30T00:16:00;94786.19;;;10.82;100.00
8059;BME280;4072;42.668;23.396;2023-04-30T00:18:28;94758.44;;;10.55;100.00
8059;BME280;4072;42.668;23.396;2023-04-30T00:21:00;94786.38;;;10.70;100.00
8059;BME280;4072;42.668;23.396;2023-04-30T00:23:29;94781.72;;;10.61;100.00
8059;BME280;4072;42.668;23.396;2023-04-30T00:25:58;94781.13;;;10.48;100.00
8059;BME280;4072;42.668;23.396;2023-04-30T00:28:27;94783.53;;;10.46;100.00
8059;BME280;4072;42.668;23.396;2023-04-30T00:30:55;94787.75;;;10.38;100.00
8059;BME280;4072;42.668;23.396;2023-04-30T00:33:23;94763.88;;;10.19;100.00
8059;BME280;4072;42.668;23.396;2023-04-30T00:35:52;94787.13;;;10.16;100.00
8059;BME280;4072;42.668;23.396;2023-04-30T00:38:21;94744.59;;;9.81;100.00
8059;BME280;4072;42.668;23.396;2023-04-30T00:40:50;94788.31;;;10.06;100.00
8059;BME280;4072;42.668;23.396;2023-04-30T00:43:19;94731.56;;;9.79;100.00
8059;BME280;4072;42.668;23.396;2023-04-30T00:45:47;94780.22;;;10.15;100.00
8059;BME280;4072;42.668;23.396;2023-04-30T00:48:16;94785.94;;;10.17;100.00
8059;BME280;4072;42.668;23.396;2023-04-30T00:50:45;94776.63;;;10.09;100.00
8059;BME280;4072;42.668;23.396;2023-04-30T00:53:13;94792.09;;;10.09;100.00
8059;BME280;4072;42.668;23.396;2023-04-30T00:55:43;94741.75;;;9.75;100.00
8059;BME280;4072;42.668;23.396;2023-04-30T00:58:13;94784.69;;;10.00;100.00
8059;BME280;4072;42.668;23.396;2023-04-30T01:00:42;94775.69;;;9.94;100.00
8059;BME280;4072;42.668;23.396;2023-04-30T01:03:13;94765.47;;;9.80;100.00
8059;BME280;4072;42.668;23.396;2023-04-30T01:05:42;94783.50;;;9.92;100.00
8059;BME280;4072;42.668;23.396;2023-04-30T01:08:10;94777.19;;;9.95;100.00
8059;BME280;4072;42.668;23.396;2023-04-30T01:10:45;94780.47;;;9.90;100.00
8059;BME280;4072;42.668;23.396;2023-04-30T01:13:19;94781.38;;;9.87;100.00
8059;BME280;4072;42.668;23.396;2023-04-30T01:15:55;94770.84;;;9.80;100.00
8059;BME280;4072;42.668;23.396;2023-04-30T01:18:27;94782.28;;;9.84;100.00
8059;BME280;4072;42.668;23.396;2023-04-30T01:21:04;94779.00;;;9.89;100.00
8059;BME280;4072;42.668;23.396;2023-04-30T01:26:37;94786.19;;;9.92;100.00
8059;BME280;4072;42.668;23.396;2023-04-30T01:29:11;94775.38;;;10.01;100.00
8059;BME280;4072;42.668;23.396;2023-04-30T01:31:42;94784.44;;;10.07;100.00
8059;BME280;4072;42.668;23.396;2023-04-30T01:34:11;94784.44;;;10.07;100.00
8059;BME280;4072;42.668;23.396;2023-04-30T01:36:46;94778.53;;;10.00;100.00
8059;BME280;4072;42.668;23.396;2023-04-30T01:39:37;94777.19;;;9.95;100.00
8059;BME280;4072;42.668;23.396;2023-04-30T01:42:12;94783.94;;;9.91;100.00
8059;BME280;4072;42.668;23.396;2023-04-30T01:44:53;94776.88;;;9.93;100.00
8059;BME280;4072;42.668;23.396;2023-04-30T01:47:32;94774.06;;;10.06;100.00
8059;BME280;4072;42.668;23.396;2023-04-30T01:50:14;94782.03;;;10.09;100.00
8059;BME280;4072;42.668;23.396;2023-04-30T01:52:46;94784.44;;;10.07;100.00
8059;BME280;4072;42.668;23.396;2023-04-30T01:55:20;94777.66;;;10.03;100.00
8059;BME280;4072;42.668;23.396;2023-04-30T01:57:54;94775.13;;;10.08;100.00
8059;BME280;4072;42.668;23.396;2023-04-30T02:00:25;94762.19;;;10.03;100.00
8059;BME280;4072;42.668;23.396;2023-04-30T02:02:54;94773.34;;;10.14;100.00
8059;BME280;4072;42.668;23.396;2023-04-30T02:05:22;94771.38;;;10.06;100.00
8059;BME280;4072;42.668;23.396;2023-04-30T02:07:51;94768.50;;;10.09;100.00
8059;BME280;4072;42.668;23.396;2023-04-30T02:10:22;94775.44;;;10.19;100.00
8059;BME280;4072;42.668;23.396;2023-04-30T02:12:51;94771.81;;;10.22;100.00
8059;BME280;4072;42.668;23.396;2023-04-30T02:15:19;94776.91;;;10.20;100.00
8059;BME280;4072;42.668;23.396;2023-04-30T02:17:50;94748.06;;;9.90;100.00
8059;BME280;4072;42.668;23.396;2023-04-30T02:20:18;94779.78;;;10.08;100.00
8059;BME280;4072;42.668;23.396;2023-04-30T02:22:46;94777.66;;;10.03;100.00
8059;BME280;4072;42.668;23.396;2023-04-30T02:25:15;94778.69;;;9.96;100.00
8059;BME280;4072;42.668;23.396;2023-04-30T02:27:43;94770.56;;;9.87;100.00
8059;BME280;4072;42.668;23.396;2023-04-30T02:30:11;94783.34;;;9.96;100.00
8059;BME280;4072;42.668;23.396;2023-04-30T02:32:40;94779.78;;;10.08;100.00
8059;BME280;4072;42.668;23.396;2023-04-30T02:35:09;94773.28;;;9.96;100.00
8059;BME280;4072;42.668;23.396;2023-04-30T02:37:37;94775.09;;;9.90;100.00
8059;BME280;4072;42.668;23.396;2023-04-30T02:40:07;94776.72;;;9.97;100.00
8059;BME280;4072;42.668;23.396;2023-04-30T02:42:36;94784.06;;;9.78;100.00
8059;BME280;4072;42.668;23.396;2023-04-30T02:45:05;94782.13;;;9.88;100.00
8059;BME280;4072;42.668;23.396;2023-04-30T02:47:33;94773.09;;;9.73;100.00
8059;BME280;4072;42.668;23.396;2023-04-30T02:50:02;94775.69;;;9.85;100.00
8059;BME280;4072;42.668;23.396;2023-04-30T02:52:32;94780.47;;;9.90;100.00
8059;BME280;4072;42.668;23.396;2023-04-30T02:55:01;94787.66;;;9.84;100.00
8059;BME280;4072;42.668;23.396;2023-04-30T02:57:29;94789.47;;;9.78;100.00
8059;BME280;4072;42.668;23.396;2023-04-30T02:59:58;94758.53;;;9.61;100.00
8059;BME280;4072;42.668;23.396;2023-04-30T03:02:26;94786.03;;;9.87;100.00
8059;BME280;4072;42.668;23.396;2023-04-30T03:04:54;94789.78;;;9.89;100.00
8059;BME280;4072;42.668;23.396;2023-04-30T03:07:22;94785.84;;;9.72;100.00
8059;BME280;4072;42.668;23.396;2023-04-30T03:09:52;94799.09;;;9.79;100.00
8059;BME280;4072;42.668;23.396;2023-04-30T03:12:21;94789.63;;;9.84;100.00
8059;BME280;4072;42.668;23.396;2023-04-30T03:14:49;94801.50;;;9.86;100.00
8059;BME280;4072;42.668;23.396;2023-04-30T03:17:17;94798.47;;;9.84;100.00
8059;BME280;4072;42.668;23.396;2023-04-30T03:19:46;94787.34;;;9.73;100.00
8059;BME280;4072;42.668;23.396;2023-04-30T03:22:14;94801.34;;;9.90;100.00
8059;BME280;4072;42.668;23.396;2023-04-30T03:24:45;94787.66;;;9.84;100.00
8059;BME280;4072;42.668;23.396;2023-04-30T03:27:14;94798.47;;;9.84;100.00
8059;BME280;4072;42.668;23.396;2023-04-30T03:29:43;94797.91;;;9.98;100.00
8059;BME280;4072;42.668;23.396;2023-04-30T03:32:12;94800.47;;;10.02;100.00
8059;BME280;4072;42.668;23.396;2023-04-30T03:34:40;94797.38;;;10.21;100.00
8059;BME280;4072;42.668;23.396;2023-04-30T03:37:08;94794.06;;;10.17;100.00
8059;BME280;4072;42.668;23.396;2023-04-30T03:39:36;94800.38;;;10.14;100.00
8059;BME280;4072;42.668;23.396;2023-04-30T03:42:04;94810.56;;;10.10;100.00
8059;BME280;4072;42.668;23.396;2023-04-30T03:44:33;94809.91;;;9.97;100.00
8059;BME280;4072;42.668;23.396;2023-04-30T03:47:02;94806.91;;;9.95;100.00
8059;BME280;4072;42.668;23.396;2023-04-30T03:49:30;94814.13;;;9.98;100.00
8059;BME280;4072;42.668;23.396;2023-04-30T03:51:58;94824.91;;;9.98;100.00
8059;BME280;4072;42.668;23.396;2023-04-30T03:54:27;94818.03;;;9.97;100.00
8059;BME280;4072;42.668;23.396;2023-04-30T03:56:55;94823.13;;;10.04;100.00
8059;BME280;4072;42.668;23.396;2023-04-30T03:59:23;94835.50;;;10.23;100.00
8059;BME280;4072;42.668;23.396;2023-04-30T04:01:54;94828.16;;;10.24;100.00
8059;BME280;4072;42.668;23.396;2023-04-30T04:04:22;94828.56;;;10.13;100.00
8059;BME280;4072;42.668;23.396;2023-04-30T04:06:50;94827.69;;;10.16;100.00
8059;BME280;4072;42.668;23.396;2023-04-30T04:09:18;94824.97;;;10.16;100.00
8059;BME280;4072;42.668;23.396;2023-04-30T04:11:47;94831.59;;;10.24;100.00
8059;BME280;4072;42.668;23.396;2023-04-30T04:14:15;94836.56;;;10.35;100.00
8059;BME280;4072;42.668;23.396;2023-04-30T04:16:43;94835.38;;;10.27;100.00
8059;BME280;4072;42.668;23.396;2023-04-30T04:19:14;94827.53;;;10.29;100.00
8059;BME280;4072;42.668;23.396;2023-04-30T04:21:41;94831.59;;;10.24;100.00
8059;BME280;4072;42.668;23.396;2023-04-30T04:24:10;94830.41;;;10.43;100.00
8059;BME280;4072;42.668;23.396;2023-04-30T04:26:38;94832.22;;;10.46;100.00
8059;BME280;4072;42.668;23.396;2023-04-30T04:29:07;94832.81;;;10.50;100.00
8059;BME280;4072;42.668;23.396;2023-04-30T04:31:35;94800.66;;;10.07;100.00
8059;BME280;4072;42.668;23.396;2023-04-30T04:34:04;94836.72;;;10.49;100.00
8059;BME280;4072;42.668;23.396;2023-04-30T04:36:33;94842.44;;;10.42;100.00
8059;BME280;4072;42.668;23.396;2023-04-30T04:39:01;94838.66;;;10.40;100.00
8059;BME280;4072;42.668;23.396;2023-04-30T04:41:30;94848.72;;;10.21;100.00
8059;BME280;4072;42.668;23.396;2023-04-30T04:43:59;94799.75;;;10.10;100.00
8059;BME280;4072;42.668;23.396;2023-04-30T04:46:29;94780.81;;;9.92;100.00
8059;BME280;4072;42.668;23.396;2023-04-30T04:48:58;94849.63;;;10.36;100.00
8059;BME280;4072;42.668;23.396;2023-04-30T04:51:26;94845.13;;;10.51;100.00
8059;BME280;4072;42.668;23.396;2023-04-30T04:53:56;94849.19;;;10.47;100.00
8059;BME280;4072;42.668;23.396;2023-04-30T04:56:24;94858.38;;;10.49;100.00
8059;BME280;4072;42.668;23.396;2023-04-30T04:58:52;94858.66;;;10.51;100.00
8059;BME280;4072;42.668;23.396;2023-04-30T05:01:20;94865.84;;;10.72;100.00
8059;BME280;4072;42.668;23.396;2023-04-30T05:03:48;94858.66;;;10.78;100.00
8059;BME280;4072;42.668;23.396;2023-04-30T05:06:19;94861.94;;;10.73;100.00
8059;BME280;4072;42.668;23.396;2023-04-30T05:08:48;94870.69;;;10.77;100.00
8059;BME280;4072;42.668;23.396;2023-04-30T05:11:17;94864.97;;;10.57;100.00
8059;BME280;4072;42.668;23.396;2023-04-30T05:13:45;94865.13;;;10.72;100.00
8059;BME280;4072;42.668;23.396;2023-04-30T05:16:13;94866.16;;;10.83;100.00
8059;BME280;4072;42.668;23.396;2023-04-30T05:18:43;94867.97;;;10.95;100.00
8059;BME280;4072;42.668;23.396;2023-04-30T05:21:11;94864.50;;;10.86;100.00
8059;BME280;4072;42.668;23.396;2023-04-30T05:23:39;94867.97;;;10.95;100.00
8059;BME280;4072;42.668;23.396;2023-04-30T05:26:07;94867.06;;;10.89;100.00
8059;BME280;4072;42.668;23.396;2023-04-30T05:28:36;94867.06;;;10.80;100.00
8059;BME280;4072;42.668;23.396;2023-04-30T05:31:04;94868.72;;;10.78;100.00
8059;BME280;4072;42.668;23.396;2023-04-30T05:33:34;94854.44;;;10.68;100.00
8059;BME280;4072;42.668;23.396;2023-04-30T05:36:04;94856.41;;;10.59;100.00
8059;BME280;4072;42.668;23.396;2023-04-30T05:38:33;94870.66;;;10.41;100.00
8059;BME280;4072;42.668;23.396;2023-04-30T05:41:01;94859.97;;;10.29;100.00
8059;BME280;4072;42.668;23.396;2023-04-30T05:43:29;94872.13;;;10.15;100.00
8059;BME280;4072;42.668;23.396;2023-04-30T05:46:00;94864.31;;;10.08;100.00
8059;BME280;4072;42.668;23.396;2023-04-30T05:48:29;94866.88;;;10.12;100.00
8059;BME280;4072;42.668;23.396;2023-04-30T05:50:58;94865.84;;;10.18;100.00
8059;BME280;4072;42.668;23.396;2023-04-30T05:53:26;94859.22;;;10.10;100.00
8059;BME280;4072;42.668;23.396;2023-04-30T05:55:54;94860.72;;;10.11;100.00
8059;BME280;4072;42.668;23.396;2023-04-30T05:58:22;94816.81;;;9.89;100.00
8059;BME280;4072;42.668;23.396;2023-04-30T06:00:50;94865.38;;;10.29;100.00
8059;BME280;4072;42.668;23.396;2023-04-30T06:03:20;94870.50;;;10.36;100.00
8059;BME280;4072;42.668;23.396;2023-04-30T06:05:48;94874.56;;;10.40;100.00
8059;BME280;4072;42.668;23.396;2023-04-30T06:08:16;94876.81;;;10.33;100.00
8059;BME280;4072;42.668;23.396;2023-04-30T06:10:45;94869.16;;;10.31;100.00
8059;BME280;4072;42.668;23.396;2023-04-30T06:13:13;94881.03;;;10.43;100.00
8059;BME280;4072;42.668;23.396;2023-04-30T06:15:42;94879.38;;;10.54;100.00
8059;BME280;4072;42.668;23.396;2023-04-30T06:18:11;94882.69;;;10.76;100.00
8059;BME280;4072;42.668;23.396;2023-04-30T06:20:42;94880.59;;;10.89;100.00
8059;BME280;4072;42.668;23.396;2023-04-30T06:23:10;94887.19;;;10.97;100.00
8059;BME280;4072;42.668;23.396;2023-04-30T06:25:39;94880.88;;;11.00;100.00
8059;BME280;4072;42.668;23.396;2023-04-30T06:28:07;94886.56;;;11.11;100.00
8059;BME280;4072;42.668;23.396;2023-04-30T06:30:35;94896.47;;;11.32;100.00
8059;BME280;4072;42.668;23.396;2023-04-30T06:33:04;94885.75;;;11.47;100.00
8059;BME280;4072;42.668;23.396;2023-04-30T06:35:32;94889.75;;;11.60;100.00
8059;BME280;4072;42.668;23.396;2023-04-30T06:38:02;94873.78;;;11.71;100.00
8059;BME280;4072;42.668;23.396;2023-04-30T06:40:31;94884.41;;;11.93;100.00
8059;BME280;4072;42.668;23.396;2023-04-30T06:42:59;94884.97;;;11.64;100.00
8059;BME280;4072;42.668;23.396;2023-04-30T06:45:27;94883.91;;;11.53;100.00
8059;BME280;4072;42.668;23.396;2023-04-30T06:47:55;94889.66;;;11.46;100.00
8059;BME280;4072;42.668;23.396;2023-04-30T06:50:27;94885.75;;;11.98;100.00
8059;BME280;4072;42.668;23.396;2023-04-30T06:52:57;94890.41;;;12.44;100.00
8059;BME280;4072;42.668;23.396;2023-04-30T06:55:28;94882.72;;;12.90;100.00
8059;BME280;4072;42.668;23.396;2023-04-30T06:57:56;94886.22;;;13.19;100.00
8059;BME280;4072;42.668;23.396;2023-04-30T07:00:24;94897.78;;;13.29;100.00
8059;BME280;4072;42.668;23.396;2023-04-30T07:02:52;94890.38;;;13.44;100.00
8059;BME280;4072;42.668;23.396;2023-04-30T07:05:25;94879.59;;;13.64;100.00
8059;BME280;4072;42.668;23.396;2023-04-30T07:07:53;94875.34;;;13.63;100.00
8059;BME280;4072;42.668;23.396;2023-04-30T07:10:23;94882.91;;;13.88;100.00
8059;BME280;4072;42.668;23.396;2023-04-30T07:12:53;94881.19;;;14.05;100.00
8059;BME280;4072;42.668;23.396;2023-04-30T07:15:22;94878.38;;;14.14;100.00
8059;BME280;4072;42.668;23.396;2023-04-30T07:17:50;94889.59;;;14.21;100.00
8059;BME280;4072;42.668;23.396;2023-04-30T07:20:19;94891.88;;;14.23;100.00
8059;BME280;4072;42.668;23.396;2023-04-30T07:22:46;94872.94;;;14.14;100.00
8059;BME280;4072;42.668;23.396;2023-04-30T07:25:15;94885.47;;;14.26;100.00
8059;BME280;4072;42.668;23.396;2023-04-30T07:27:44;94893.72;;;14.31;100.00
8059;BME280;4072;42.668;23.396;2023-04-30T07:30:14;94886.56;;;14.34;100.00
8059;BME280;4072;42.668;23.396;2023-04-30T07:32:42;94884.31;;;14.32;100.00
8059;BME280;4072;42.668;23.396;2023-04-30T07:35:11;94886.41;;;14.23;100.00
8059;BME280;4072;42.668;23.396;2023-04-30T07:37:40;94886.38;;;13.88;100.00
8059;BME280;4072;42.668;23.396;2023-04-30T07:40:10;94892.72;;;13.65;100.00
8059;BME280;4072;42.668;23.396;2023-04-30T07:42:50;94885.59;;;13.39;100.00
8059;BME280;4072;42.668;23.396;2023-04-30T07:45:20;94891.03;;;13.39;100.00
8059;BME280;4072;42.668;23.396;2023-04-30T07:47:49;94885.00;;;13.35;100.00
8059;BME280;4072;42.668;23.396;2023-04-30T07:50:18;94896.66;;;13.50;100.00
8059;BME280;4072;42.668;23.396;2023-04-30T07:52:47;94897.94;;;13.69;100.00
8059;BME280;4072;42.668;23.396;2023-04-30T07:55:16;94895.41;;;13.80;100.00
8059;BME280;4072;42.668;23.396;2023-04-30T07:57:46;94889.09;;;14.03;100.00
8059;BME280;4072;42.668;23.396;2023-04-30T08:00:14;94881.28;;;14.10;100.00
8059;BME280;4072;42.668;23.396;2023-04-30T08:02:44;94895.44;;;14.49;100.00
8059;BME280;4072;42.668;23.396;2023-04-30T08:05:14;94877.31;;;14.66;100.00
8059;BME280;4072;42.668;23.396;2023-04-30T08:07:42;94897.94;;;14.93;100.00
8059;BME280;4072;42.668;23.396;2023-04-30T08:10:11;94891.81;;;15.43;99.13
8059;BME280;4072;42.668;23.396;2023-04-30T08:12:40;94896.00;;;15.70;96.92
8059;BME280;4072;42.668;23.396;2023-04-30T08:15:08;94881.00;;;15.54;96.21
8059;BME280;4072;42.668;23.396;2023-04-30T08:17:36;94888.75;;;15.61;94.02
8059;BME280;4072;42.668;23.396;2023-04-30T08:20:07;94882.72;;;15.52;95.21
8059;BME280;4072;42.668;23.396;2023-04-30T08:22:35;94904.44;;;15.66;94.05
8059;BME280;4072;42.668;23.396;2023-04-30T08:25:05;94895.97;;;15.64;93.69
8059;BME280;4072;42.668;23.396;2023-04-30T08:27:33;94891.28;;;15.39;95.47
8059;BME280;4072;42.668;23.396;2023-04-30T08:30:02;94831.13;;;14.72;96.20
8059;BME280;4072;42.668;23.396;2023-04-30T08:32:30;94895.47;;;15.15;96.77
8059;BME280;4072;42.668;23.396;2023-04-30T08:34:59;94895.84;;;15.02;95.97
8059;BME280;4072;42.668;23.396;2023-04-30T08:37:28;94902.78;;;15.03;93.69
8059;BME280;4072;42.668;23.396;2023-04-30T08:39:56;94904.38;;;15.15;91.72
8059;BME280;4072;42.668;23.396;2023-04-30T08:42:29;94900.09;;;15.09;98.28
8059;BME280;4072;42.668;23.396;2023-04-30T08:44:59;94896.88;;;14.85;100.00
8059;BME280;4072;42.668;23.396;2023-04-30T08:47:29;94888.78;;;14.50;100.00
8059;BME280;4072;42.668;23.396;2023-04-30T08:49:58;94911.19;;;14.25;100.00
8059;BME280;4072;42.668;23.396;2023-04-30T08:52:29;94894.94;;;14.16;100.00
8059;BME280;4072;42.668;23.396;2023-04-30T08:55:00;94886.34;;;14.52;100.00
8059;BME280;4072;42.668;23.396;2023-04-30T08:57:29;94880.16;;;14.97;100.00
8059;BME280;4072;42.668;23.396;2023-04-30T08:59:57;94883.25;;;15.30;100.00
8059;BME280;4072;42.668;23.396;2023-04-30T09:02:25;94882.94;;;15.79;100.00
8059;BME280;4072;42.668;23.396;2023-04-30T09:04:54;94875.09;;;16.23;97.17
8059;BME280;4072;42.668;23.396;2023-04-30T09:07:23;94871.34;;;16.57;90.53
8059;BME280;4072;42.668;23.396;2023-04-30T09:09:55;94876.41;;;16.81;85.05
8059;BME280;4072;42.668;23.396;2023-04-30T09:12:26;94867.03;;;17.09;83.31
8059;BME280;4072;42.668;23.396;2023-04-30T09:14:59;94802.66;;;16.92;83.35
8059;BME280;4072;42.668;23.396;2023-04-30T09:17:28;94813.84;;;16.99;76.58
8059;BME280;4072;42.668;23.396;2023-04-30T09:20:06;94856.16;;;17.31;74.78
8059;BME280;4072;42.668;23.396;2023-04-30T09:22:35;94812.88;;;17.19;72.27
8059;BME280;4072;42.668;23.396;2023-04-30T09:25:06;94786.06;;;17.28;69.40
8059;BME280;4072;42.668;23.396;2023-04-30T09:27:35;94844.25;;;18.01;65.20
8059;BME280;4072;42.668;23.396;2023-04-30T09:30:05;94838.03;;;17.95;65.67
8059;BME280;4072;42.668;23.396;2023-04-30T09:32:34;94844.69;;;18.27;62.78
8059;BME280;4072;42.668;23.396;2023-04-30T09:35:02;94840.78;;;18.90;61.72
8059;BME280;4072;42.668;23.396;2023-04-30T09:37:35;94833.31;;;19.37;59.01
8059;BME280;4072;42.668;23.396;2023-04-30T09:40:07;94844.53;;;19.74;55.99
8059;BME280;4072;42.668;23.396;2023-04-30T09:42:35;94835.31;;;20.01;53.20
8059;BME280;4072;42.668;23.396;2023-04-30T09:45:04;94833.97;;;20.13;51.53
8059;BME280;4072;42.668;23.396;2023-04-30T09:47:32;94825.63;;;20.24;50.99
8059;BME280;4072;42.668;23.396;2023-04-30T09:50:01;94814.75;;;20.13;51.44
8059;BME280;4072;42.668;23.396;2023-04-30T09:52:29;94824.94;;;20.18;51.88
8059;BME280;4072;42.668;23.396;2023-04-30T09:54:58;94828.25;;;20.11;51.67
8059;BME280;4072;42.668;23.396;2023-04-30T09:57:29;94833.06;;;20.29;50.20
8059;BME280;4072;42.668;23.396;2023-04-30T10:00:02;94822.88;;;20.48;49.08
8059;BME280;4072;42.668;23.396;2023-04-30T10:02:35;94825.56;;;20.00;50.06
8059;BME280;4072;42.668;23.396;2023-04-30T10:05:05;94824.44;;;19.20;50.48
8059;BME280;4072;42.668;23.396;2023-04-30T10:07:35;94824.88;;;18.83;52.71
8059;BME280;4072;42.668;23.396;2023-04-30T10:10:07;94819.34;;;18.89;54.01
8059;BME280;4072;42.668;23.396;2023-04-30T10:12:42;94776.25;;;18.43;53.63
8059;BME280;4072;42.668;23.396;2023-04-30T10:15:14;94816.81;;;18.34;54.27
8059;BME280;4072;42.668;23.396;2023-04-30T10:17:49;94815.09;;;18.42;54.07
8059;BME280;4072;42.668;23.396;2023-04-30T10:20:22;94811.72;;;18.71;55.25
8059;BME280;4072;42.668;23.396;2023-04-30T10:22:52;94800.66;;;18.93;54.99
8059;BME280;4072;42.668;23.396;2023-04-30T10:25:21;94811.63;;;18.93;54.51
8059;BME280;4072;42.668;23.396;2023-04-30T10:27:52;94776.09;;;18.03;56.51
8059;BME280;4072;42.668;23.396;2023-04-30T10:30:21;94808.22;;;17.41;62.16
8059;BME280;4072;42.668;23.396;2023-04-30T10:32:54;94826.75;;;16.93;68.98
8059;BME280;4072;42.668;23.396;2023-04-30T10:35:29;94844.78;;;16.63;71.99
8059;BME280;4072;42.668;23.396;2023-04-30T10:38:06;94840.06;;;16.64;73.27
8059;BME280;4072;42.668;23.396;2023-04-30T10:40:39;94844.97;;;16.43;77.19
8059;BME280;4072;42.668;23.396;2023-04-30T10:43:10;94811.41;;;15.95;83.43
8059;BME280;4072;42.668;23.396;2023-04-30T10:45:42;94863.19;;;16.26;87.72
8059;BME280;4072;42.668;23.396;2023-04-30T10:48:14;94841.16;;;15.93;98.85
8059;BME280;4072;42.668;23.396;2023-04-30T10:50:43;94860.34;;;15.73;100.00
8059;BME280;4072;42.668;23.396;2023-04-30T10:53:13;94854.78;;;15.57;100.00
8059;BME280;4072;42.668;23.396;2023-04-30T10:55:45;94849.53;;;15.53;100.00
8059;BME280;4072;42.668;23.396;2023-04-30T10:58:24;94848.94;;;15.69;100.00
8059;BME280;4072;42.668;23.396;2023-04-30T11:01:00;94851.75;;;16.22;100.00
8059;BME280;4072;42.668;23.396;2023-04-30T11:03:30;94848.34;;;16.91;100.00
8059;BME280;4072;42.668;23.396;2023-04-30T11:05:59;94822.34;;;17.23;90.25
8059;BME280;4072;42.668;23.396;2023-04-30T11:08:33;94800.97;;;17.27;87.09
8059;BME280;4072;42.668;23.396;2023-04-30T11:11:02;94838.81;;;17.79;88.57
8059;BME280;4072;42.668;23.396;2023-04-30T11:13:43;94838.75;;;18.23;75.57
8059;BME280;4072;42.668;23.396;2023-04-30T11:16:14;94834.91;;;18.59;73.37
8059;BME280;4072;42.668;23.396;2023-04-30T11:18:43;94829.53;;;18.94;69.08
8059;BME280;4072;42.668;23.396;2023-04-30T11:21:15;94822.50;;;19.04;64.95
8059;BME280;4072;42.668;23.396;2023-04-30T11:23:43;94799.41;;;18.88;60.10
8059;BME280;4072;42.668;23.396;2023-04-30T11:26:15;94783.63;;;18.59;61.82
8059;BME280;4072;42.668;23.396;2023-04-30T11:28:50;94823.47;;;18.60;63.89
8059;BME280;4072;42.668;23.396;2023-04-30T11:31:20;94833.31;;;17.90;67.79
8059;BME280;4072;42.668;23.396;2023-04-30T11:33:50;94788.53;;;17.15;68.91
8059;BME280;4072;42.668;23.396;2023-04-30T11:36:19;94828.78;;;17.20;71.23
8059;BME280;4072;42.668;23.396;2023-04-30T11:38:48;94840.66;;;16.95;72.95
8059;BME280;4072;42.668;23.396;2023-04-30T11:41:22;94840.09;;;16.69;80.88
8059;BME280;4072;42.668;23.396;2023-04-30T11:43:54;94838.31;;;16.13;93.24
8059;BME280;4072;42.668;23.396;2023-04-30T11:46:22;94818.50;;;15.45;100.00
8059;BME280;4072;42.668;23.396;2023-04-30T11:48:50;94834.50;;;15.12;100.00
8059;BME280;4072;42.668;23.396;2023-04-30T11:51:21;94839.91;;;15.07;100.00
8059;BME280;4072;42.668;23.396;2023-04-30T11:53:51;94831.53;;;15.10;100.00
8059;BME280;4072;42.668;23.396;2023-04-30T11:56:20;94839.66;;;15.30;100.00
8059;BME280;4072;42.668;23.396;2023-04-30T11:58:51;94824.09;;;15.36;100.00
8059;BME280;4072;42.668;23.396;2023-04-30T12:01:26;94828.28;;;15.63;100.00
8059;BME280;4072;42.668;23.396;2023-04-30T12:03:55;94835.84;;;15.79;100.00
8059;BME280;4072;42.668;23.396;2023-04-30T12:06:25;94803.38;;;15.81;100.00
8059;BME280;4072;42.668;23.396;2023-04-30T12:08:55;94835.16;;;16.26;100.00
8059;BME280;4072;42.668;23.396;2023-04-30T12:11:25;94842.97;;;16.07;100.00
8059;BME280;4072;42.668;23.396;2023-04-30T12:13:54;94827.38;;;16.13;100.00
8059;BME280;4072;42.668;23.396;2023-04-30T12:16:24;94838.25;;;16.02;100.00
8059;BME280;4072;42.668;23.396;2023-04-30T12:18:52;94798.09;;;15.66;100.00
8059;BME280;4072;42.668;23.396;2023-04-30T12:21:21;94829.41;;;15.76;100.00
8059;BME280;4072;42.668;23.396;2023-04-30T12:23:50;94849.88;;;15.66;100.00
8059;BME280;4072;42.668;23.396;2023-04-30T12:26:19;94851.41;;;15.42;100.00
8059;BME280;4072;42.668;23.396;2023-04-30T12:28:47;94859.72;;;15.07;100.00
8059;BME280;4072;42.668;23.396;2023-04-30T12:31:17;94809.84;;;14.30;100.00
8059;BME280;4072;42.668;23.396;2023-04-30T12:33:55;94854.13;;;14.16;100.00
8059;BME280;4072;42.668;23.396;2023-04-30T12:36:30;94859.19;;;13.88;100.00
8059;BME280;4072;42.668;23.396;2023-04-30T12:39:05;94848.38;;;13.59;100.00
8059;BME280;4072;42.668;23.396;2023-04-30T12:41:39;94843.25;;;13.47;100.00
8059;BME280;4072;42.668;23.396;2023-04-30T12:44:16;94827.09;;;13.58;100.00
8059;BME280;4072;42.668;23.396;2023-04-30T12:46:44;94839.00;;;13.95;100.00
8059;BME280;4072;42.668;23.396;2023-04-30T12:49:25;94837.34;;;14.17;100.00
8059;BME280;4072;42.668;23.396;2023-04-30T12:51:58;94827.69;;;14.31;100.00
8059;BME280;4072;42.668;23.396;2023-04-30T12:54:28;94835.41;;;14.58;100.00
8059;BME280;4072;42.668;23.396;2023-04-30T12:57:00;94842.09;;;14.77;100.00
8059;BME280;4072;42.668;23.396;2023-04-30T12:59:31;94838.78;;;14.93;100.00
8059;BME280;4072;42.668;23.396;2023-04-30T13:02:07;94764.63;;;14.58;100.00
8059;BME280;4072;42.668;23.396;2023-04-30T13:04:39;94827.03;;;15.33;100.00
8059;BME280;4072;42.668;23.396;2023-04-30T13:07:07;94818.28;;;15.85;100.00
8059;BME280;4072;42.668;23.396;2023-04-30T13:09:37;94837.97;;;16.42;100.00
8059;BME280;4072;42.668;23.396;2023-04-30T13:12:06;94803.09;;;16.68;100.00
8059;BME280;4072;42.668;23.396;2023-04-30T13:14:37;94820.34;;;17.18;100.00
8059;BME280;4072;42.668;23.396;2023-04-30T13:17:05;94798.97;;;17.22;100.00
8059;BME280;4072;42.668;23.396;2023-04-30T13:19:38;94819.41;;;17.55;100.00
8059;BME280;4072;42.668;23.396;2023-04-30T13:22:10;94808.97;;;17.48;100.00